Time;durP1;ratioP1;P1;durP2;ratioP2;P2;SDS_P1;SDS_P2;PMS_P1;PMS_P2;Temp;Humidity;BMP_temperature;BMP_pressure;BME280_temperature;BME280_humidity;BME280_pressure;Samples;Min_cycle;Max_cycle;Signal;HPM_P1;HPM_P2
2022/02/11 00:02:17;;;;;;;10.60;4.00;;;;;;;;;;6237419;28;20614;-65
2022/02/11 00:06:00;;;;;;;10.73;4.70;;;;;;;;;;6239952;28;20224;-65
2022/02/11 00:09:21;;;;;;;10.50;3.30;;;;;;;;;;6251416;28;20228;-65
2022/02/11 00:12:43;;;;;;;12.03;4.20;;;;;;;;;;6239347;28;20220;-65
2022/02/11 00:16:05;;;;;;;8.63;3.87;;;;;;;;;;6232644;28;20237;-64
2022/02/11 00:19:26;;;;;;;10.20;3.33;;;;;;;;;;6238295;28;20320;-65
2022/02/11 00:22:46;;;;;;;14.67;4.97;;;;;;;;;;6234509;28;20224;-65
2022/02/11 00:26:08;;;;;;;9.03;4.43;;;;;;;;;;6230689;28;20617;-65
2022/02/11 00:33:18;;;;;;;10.57;3.87;;;;;;;;;;6204523;28;20228;-64
2022/02/11 00:36:44;;;;;;;11.07;5.10;;;;;;;;;;6244891;28;22181;-66
2022/02/11 00:40:14;;;;;;;9.60;4.57;;;;;;;;;;6241479;28;20228;-65
2022/02/11 01:02:19;;;;;;;20.00;4.93;;;;;;;;;;6246938;28;20607;-64
2022/02/11 01:05:40;;;;;;;11.27;5.00;;;;;;;;;;6232382;28;20315;-64
2022/02/11 01:09:02;;;;;;;6.70;2.87;;;;;;;;;;6233932;28;20244;-64
2022/02/11 01:12:24;;;;;;;11.03;3.93;;;;;;;;;;6258997;28;20252;-65
2022/02/11 01:15:53;;;;;;;9.87;4.03;;;;;;;;;;6262682;28;20626;-64
2022/02/11 01:19:21;;;;;;;6.37;3.70;;;;;;;;;;6250539;28;20244;-65
2022/02/11 01:23:00;;;;;;;11.87;4.27;;;;;;;;;;6258805;28;20243;-65
2022/02/11 01:26:35;;;;;;;9.33;3.40;;;;;;;;;;6236739;28;20224;-64
2022/02/11 01:30:19;;;;;;;6.10;3.07;;;;;;;;;;6259663;28;20255;-64
2022/02/11 01:34:15;;;;;;;8.30;2.90;;;;;;;;;;6261032;28;20315;-64
2022/02/11 01:37:47;;;;;;;9.13;3.83;;;;;;;;;;6249781;28;20231;-64
2022/02/11 01:52:19;;;;;;;9.57;3.17;;;;;;;;;;6228199;28;20228;-65
2022/02/11 01:56:01;;;;;;;12.27;3.20;;;;;;;;;;6238631;28;20594;-64
2022/02/11 01:59:50;;;;;;;11.27;3.73;;;;;;;;;;6242747;28;20212;-63
2022/02/11 02:03:41;;;;;;;9.20;3.20;;;;;;;;;;6235840;28;20224;-65
2022/02/11 02:11:28;;;;;;;9.93;3.43;;;;;;;;;;6238828;28;20228;-65
2022/02/11 02:26:10;;;;;;;9.77;4.03;;;;;;;;;;6173638;28;20237;-65
2022/02/11 02:33:50;;;;;;;10.60;3.70;;;;;;;;;;6255847;28;20220;-65
2022/02/11 02:37:21;;;;;;;7.40;2.87;;;;;;;;;;6257354;28;20267;-65
2022/02/11 02:59:00;;;;;;;12.23;3.60;;;;;;;;;;6258350;28;20739;-65
2022/02/11 03:35:23;;;;;;;7.37;3.43;;;;;;;;;;6223608;28;20323;-63
2022/02/11 03:50:00;;;;;;;8.13;4.67;;;;;;;;;;6230435;28;20224;-64
2022/02/11 04:20:13;;;;;;;7.23;3.97;;;;;;;;;;6198792;28;20800;-65
2022/02/11 04:24:01;;;;;;;11.87;4.83;;;;;;;;;;6259355;28;20247;-65
2022/02/11 04:53:24;;;;;;;7.10;4.40;;;;;;;;;;6243207;28;20620;-65
2022/02/11 04:56:39;;;;;;;6.80;4.40;;;;;;;;;;6253193;28;20252;-65
2022/02/11 05:00:00;;;;;;;10.70;4.37;;;;;;;;;;6248813;28;20228;-64
2022/02/11 05:03:21;;;;;;;10.30;4.37;;;;;;;;;;6253179;28;20224;-64
2022/02/11 05:06:43;;;;;;;7.57;5.53;;;;;;;;;;6257338;28;20227;-64
2022/02/11 05:10:04;;;;;;;9.10;5.07;;;;;;;;;;6259279;28;20232;-64
2022/02/11 05:13:25;;;;;;;10.67;5.37;;;;;;;;;;6258798;28;20538;-64
2022/02/11 05:16:46;;;;;;;11.43;5.27;;;;;;;;;;6259788;28;20764;-64
2022/02/11 05:20:08;;;;;;;17.97;5.70;;;;;;;;;;6262292;28;20314;-65
2022/02/11 05:23:30;;;;;;;14.13;5.97;;;;;;;;;;6252644;28;20345;-65
2022/02/11 05:26:50;;;;;;;9.83;5.73;;;;;;;;;;6259717;28;20248;-64
2022/02/11 05:30:12;;;;;;;12.43;5.90;;;;;;;;;;6256978;28;20232;-65
2022/02/11 05:33:33;;;;;;;8.87;4.63;;;;;;;;;;6261229;28;20235;-65
2022/02/11 05:36:53;;;;;;;10.53;5.43;;;;;;;;;;6230938;28;20248;-64
2022/02/11 05:40:15;;;;;;;7.70;5.30;;;;;;;;;;6239166;28;20224;-64
2022/02/11 05:43:36;;;;;;;13.97;6.20;;;;;;;;;;6237444;28;20240;-65
2022/02/11 05:46:56;;;;;;;10.73;5.93;;;;;;;;;;6234190;28;20251;-63
2022/02/11 05:50:17;;;;;;;10.50;6.40;;;;;;;;;;6237482;28;20347;-64
2022/02/11 05:53:38;;;;;;;8.00;5.13;;;;;;;;;;6233948;28;20237;-64
2022/02/11 05:57:00;;;;;;;11.50;5.43;;;;;;;;;;6220810;28;20237;-64
2022/02/11 06:00:20;;;;;;;9.23;4.93;;;;;;;;;;6254730;28;20242;-64
2022/02/11 06:03:41;;;;;;;9.50;5.17;;;;;;;;;;6267160;28;20242;-63
2022/02/11 06:07:02;;;;;;;11.13;5.90;;;;;;;;;;6254531;28;20224;-64
2022/02/11 06:10:22;;;;;;;12.90;6.30;;;;;;;;;;6260074;28;20227;-64
2022/02/11 06:13:44;;;;;;;10.67;5.50;;;;;;;;;;6264758;28;20232;-65
2022/02/11 06:17:05;;;;;;;12.37;6.07;;;;;;;;;;6261920;28;20263;-64
2022/02/11 06:20:28;;;;;;;11.40;4.73;;;;;;;;;;6241705;28;20322;-63
2022/02/11 06:23:55;;;;;;;13.80;6.10;;;;;;;;;;6248459;28;20220;-64
2022/02/11 06:27:16;;;;;;;11.40;5.40;;;;;;;;;;6242569;28;20227;-63
2022/02/11 06:30:38;;;;;;;10.73;5.63;;;;;;;;;;6259216;28;20625;-64
2022/02/11 06:33:58;;;;;;;16.03;5.87;;;;;;;;;;6269148;28;20616;-64
2022/02/11 06:37:18;;;;;;;10.33;5.43;;;;;;;;;;6235990;28;20225;-63
2022/02/11 06:40:39;;;;;;;12.33;6.83;;;;;;;;;;6235920;28;20252;-63
2022/02/11 06:43:59;;;;;;;14.93;6.70;;;;;;;;;;6233478;28;20220;-64
2022/02/11 06:47:21;;;;;;;9.30;5.97;;;;;;;;;;6231344;28;20232;-66
2022/02/11 06:50:42;;;;;;;12.00;6.20;;;;;;;;;;6225743;28;20833;-66
2022/02/11 06:54:03;;;;;;;12.23;6.47;;;;;;;;;;6249288;28;20261;-66
2022/02/11 06:57:23;;;;;;;10.43;6.47;;;;;;;;;;6241313;28;20224;-66
2022/02/11 07:00:45;;;;;;;12.20;6.57;;;;;;;;;;6226055;28;20321;-64
2022/02/11 07:04:07;;;;;;;9.00;6.97;;;;;;;;;;6232840;28;20236;-64
2022/02/11 07:07:27;;;;;;;15.10;7.50;;;;;;;;;;6233816;28;20550;-65
2022/02/11 07:10:48;;;;;;;9.40;7.47;;;;;;;;;;6230064;28;20669;-66
2022/02/11 07:14:11;;;;;;;16.70;7.17;;;;;;;;;;6232912;28;20253;-65
2022/02/11 07:17:33;;;;;;;12.20;6.83;;;;;;;;;;6231346;28;20260;-65
2022/02/11 07:20:55;;;;;;;10.47;6.73;;;;;;;;;;6238842;28;20224;-64
2022/02/11 07:24:16;;;;;;;9.23;6.77;;;;;;;;;;6242024;28;20229;-63
2022/02/11 07:27:36;;;;;;;12.80;6.93;;;;;;;;;;6225826;28;20233;-63
2022/02/11 07:30:58;;;;;;;8.07;6.10;;;;;;;;;;6235927;28;20233;-63
2022/02/11 07:34:19;;;;;;;9.20;5.73;;;;;;;;;;6234328;28;21094;-66
2022/02/11 07:37:40;;;;;;;9.70;7.30;;;;;;;;;;6224840;28;20232;-66
2022/02/11 07:41:01;;;;;;;10.67;7.17;;;;;;;;;;6227367;28;20229;-63
2022/02/11 07:44:23;;;;;;;10.53;6.63;;;;;;;;;;6231072;28;20221;-66
2022/02/11 07:47:43;;;;;;;10.10;6.47;;;;;;;;;;6254675;28;20947;-65
2022/02/11 07:51:04;;;;;;;13.43;7.90;;;;;;;;;;6260374;28;20240;-64
2022/02/11 07:54:26;;;;;;;12.80;7.77;;;;;;;;;;6258388;28;20247;-63
2022/02/11 07:57:47;;;;;;;9.20;7.43;;;;;;;;;;6254612;28;20236;-65
2022/02/11 08:01:07;;;;;;;10.63;7.50;;;;;;;;;;6258736;28;20216;-65
2022/02/11 08:04:28;;;;;;;9.87;7.53;;;;;;;;;;6259500;28;20231;-65
2022/02/11 08:07:49;;;;;;;10.10;7.17;;;;;;;;;;6262321;28;20231;-64
2022/02/11 08:11:11;;;;;;;9.57;7.00;;;;;;;;;;6259831;28;20216;-65
2022/02/11 08:14:32;;;;;;;11.50;6.40;;;;;;;;;;6259989;28;20227;-65
2022/02/11 08:17:53;;;;;;;10.17;7.40;;;;;;;;;;6253259;28;20249;-65
2022/02/11 08:21:13;;;;;;;7.43;6.53;;;;;;;;;;6254670;28;20231;-64
2022/02/11 08:24:34;;;;;;;9.50;6.90;;;;;;;;;;6258707;28;20236;-64
2022/02/11 08:27:56;;;;;;;7.40;6.70;;;;;;;;;;6259155;28;20618;-66
2022/02/11 08:31:16;;;;;;;7.93;5.97;;;;;;;;;;6254094;28;20220;-64
2022/02/11 08:34:39;;;;;;;11.17;6.83;;;;;;;;;;6255402;28;20788;-66
2022/02/11 08:38:00;;;;;;;9.33;6.37;;;;;;;;;;6254461;28;20231;-65
2022/02/11 08:41:20;;;;;;;9.60;7.10;;;;;;;;;;6252445;28;20262;-66
2022/02/11 08:44:42;;;;;;;10.13;6.67;;;;;;;;;;6253083;28;20605;-68
2022/02/11 08:48:03;;;;;;;12.23;7.43;;;;;;;;;;6257288;28;20235;-66
2022/02/11 08:51:24;;;;;;;10.87;7.07;;;;;;;;;;6250814;28;20512;-65
2022/02/11 08:54:45;;;;;;;8.47;6.47;;;;;;;;;;6253579;28;20239;-65
2022/02/11 08:58:06;;;;;;;12.70;7.13;;;;;;;;;;6251302;28;20231;-65
2022/02/11 09:01:27;;;;;;;7.47;6.30;;;;;;;;;;6253513;28;20240;-65
2022/02/11 09:04:49;;;;;;;11.93;6.27;;;;;;;;;;6248507;28;20348;-66
2022/02/11 09:08:10;;;;;;;12.17;6.00;;;;;;;;;;6247037;28;20248;-65
2022/02/11 09:11:31;;;;;;;6.90;6.20;;;;;;;;;;6250687;28;20509;-66
2022/02/11 09:14:51;;;;;;;8.83;6.43;;;;;;;;;;6245884;28;20236;-68
2022/02/11 09:18:13;;;;;;;9.67;6.37;;;;;;;;;;6259863;28;20291;-65
2022/02/11 09:21:33;;;;;;;9.10;5.93;;;;;;;;;;6252890;28;20219;-65
2022/02/11 09:24:54;;;;;;;9.13;5.80;;;;;;;;;;6256889;28;21476;-66
2022/02/11 09:28:15;;;;;;;8.23;5.37;;;;;;;;;;6258363;28;20750;-68
2022/02/11 09:31:35;;;;;;;6.70;5.00;;;;;;;;;;6249708;28;20231;-67
2022/02/11 09:34:57;;;;;;;7.40;4.83;;;;;;;;;;6252003;28;20505;-66
2022/02/11 09:38:19;;;;;;;7.47;5.80;;;;;;;;;;6249083;28;20339;-65
2022/02/11 09:41:39;;;;;;;5.00;3.90;;;;;;;;;;6245853;28;22330;-66
2022/02/11 09:45:00;;;;;;;4.73;4.00;;;;;;;;;;6248612;28;20232;-66
2022/02/11 09:48:23;;;;;;;6.83;4.70;;;;;;;;;;6251162;28;20314;-65
2022/02/11 09:51:46;;;;;;;6.03;5.20;;;;;;;;;;6247183;28;20235;-64
2022/02/11 09:58:48;;;;;;;6.13;5.27;;;;;;;;;;6241172;28;20240;-66
2022/02/11 10:02:09;;;;;;;5.73;4.93;;;;;;;;;;6251995;28;20236;-66
2022/02/11 10:05:31;;;;;;;6.07;3.93;;;;;;;;;;6251425;28;20236;-64
2022/02/11 10:08:54;;;;;;;10.17;4.17;;;;;;;;;;6251174;28;20243;-63
2022/02/11 10:12:14;;;;;;;9.03;4.50;;;;;;;;;;6254501;28;20231;-64
2022/02/11 10:15:37;;;;;;;8.07;5.00;;;;;;;;;;6252359;28;20290;-66
2022/02/11 10:19:00;;;;;;;8.93;5.10;;;;;;;;;;6254274;28;20231;-67
2022/02/11 10:22:22;;;;;;;8.00;5.20;;;;;;;;;;6247649;28;20240;-65
2022/02/11 10:25:54;;;;;;;17.73;7.20;;;;;;;;;;6247101;28;20584;-65
2022/02/11 10:29:16;;;;;;;9.87;6.20;;;;;;;;;;6248321;28;20227;-65
2022/02/11 10:32:37;;;;;;;11.20;6.43;;;;;;;;;;6238084;28;20235;-66
2022/02/11 10:35:58;;;;;;;8.07;6.27;;;;;;;;;;6240677;28;20220;-66
2022/02/11 10:39:20;;;;;;;7.67;6.17;;;;;;;;;;6243149;28;20236;-67
2022/02/11 10:42:45;;;;;;;10.17;6.80;;;;;;;;;;6234539;28;20518;-66
2022/02/11 10:46:15;;;;;;;11.10;7.33;;;;;;;;;;6244203;28;20635;-64
2022/02/11 10:49:37;;;;;;;8.80;6.77;;;;;;;;;;6243540;28;20326;-66
2022/02/11 10:52:57;;;;;;;7.90;6.83;;;;;;;;;;6244053;28;20668;-66
2022/02/11 10:56:19;;;;;;;8.27;5.87;;;;;;;;;;6246253;28;20243;-65
2022/02/11 10:59:42;;;;;;;11.07;6.67;;;;;;;;;;6246681;28;20232;-66
2022/02/11 11:03:04;;;;;;;8.13;6.07;;;;;;;;;;6252160;28;20664;-66
2022/02/11 11:06:24;;;;;;;7.67;6.03;;;;;;;;;;6255532;28;20252;-65
2022/02/11 11:09:46;;;;;;;7.07;5.50;;;;;;;;;;6236109;28;20239;-69
2022/02/11 11:13:07;;;;;;;6.83;6.17;;;;;;;;;;6252227;28;20259;-65
2022/02/11 11:16:29;;;;;;;7.17;5.57;;;;;;;;;;6254634;28;20232;-67
2022/02/11 11:19:50;;;;;;;5.33;4.83;;;;;;;;;;6239482;28;20248;-66
2022/02/11 11:23:18;;;;;;;9.67;5.23;;;;;;;;;;6232923;28;20501;-65
2022/02/11 11:26:40;;;;;;;6.33;5.20;;;;;;;;;;6232891;28;20231;-66
2022/02/11 11:30:15;;;;;;;6.70;5.17;;;;;;;;;;6231862;28;20236;-67
2022/02/11 11:33:37;;;;;;;5.43;4.33;;;;;;;;;;6231962;28;20233;-65
2022/02/11 11:37:03;;;;;;;4.70;4.30;;;;;;;;;;6226994;28;20228;-65
2022/02/11 11:40:24;;;;;;;5.60;4.63;;;;;;;;;;6229992;28;20252;-65
2022/02/11 11:43:45;;;;;;;7.37;4.60;;;;;;;;;;6233156;28;20228;-66
2022/02/11 11:47:09;;;;;;;4.33;3.93;;;;;;;;;;6240818;28;20240;-65
2022/02/11 11:50:32;;;;;;;5.03;3.67;;;;;;;;;;6228694;28;20255;-65
2022/02/11 11:54:08;;;;;;;5.07;3.60;;;;;;;;;;6217053;28;20240;-65
2022/02/11 11:57:36;;;;;;;4.33;3.63;;;;;;;;;;6220677;28;20249;-66
2022/02/11 12:01:00;;;;;;;6.63;3.83;;;;;;;;;;6219132;28;20252;-66
2022/02/11 12:04:23;;;;;;;6.10;4.57;;;;;;;;;;6224973;28;20252;-66
2022/02/11 12:07:47;;;;;;;5.47;4.47;;;;;;;;;;6223279;28;20675;-67
2022/02/11 12:11:07;;;;;;;6.20;3.87;;;;;;;;;;6217559;28;20236;-69
2022/02/11 12:14:28;;;;;;;3.87;3.30;;;;;;;;;;6216907;28;20224;-66
2022/02/11 12:17:53;;;;;;;5.30;3.47;;;;;;;;;;6208297;28;20220;-67
2022/02/11 12:21:13;;;;;;;5.17;3.73;;;;;;;;;;6204140;28;20237;-67
2022/02/11 12:28:16;;;;;;;5.83;4.03;;;;;;;;;;6223555;28;20326;-67
2022/02/11 12:31:38;;;;;;;5.73;3.40;;;;;;;;;;6240633;28;20250;-66
2022/02/11 12:34:59;;;;;;;4.30;3.57;;;;;;;;;;6236213;28;20771;-66
2022/02/11 12:38:19;;;;;;;6.33;4.27;;;;;;;;;;6236080;28;20236;-66
2022/02/11 12:41:45;;;;;;;5.63;3.70;;;;;;;;;;6237755;28;20231;-67
2022/02/11 12:45:06;;;;;;;4.70;3.47;;;;;;;;;;6240390;28;20235;-67
2022/02/11 12:48:31;;;;;;;5.10;3.53;;;;;;;;;;6235145;28;20516;-66
2022/02/11 12:51:53;;;;;;;5.43;3.93;;;;;;;;;;6238511;28;20571;-67
2022/02/11 12:55:14;;;;;;;9.43;4.60;;;;;;;;;;6237825;28;20233;-67
2022/02/11 12:58:36;;;;;;;10.27;5.53;;;;;;;;;;6245559;28;20236;-68
2022/02/11 13:01:57;;;;;;;6.53;5.47;;;;;;;;;;6242016;28;20231;-64
2022/02/11 13:05:20;;;;;;;5.63;5.13;;;;;;;;;;6202330;28;20610;-67
2022/02/11 13:08:40;;;;;;;6.83;3.93;;;;;;;;;;6214687;28;20240;-65
2022/02/11 13:12:01;;;;;;;4.10;3.43;;;;;;;;;;6215195;28;20236;-64
2022/02/11 13:15:27;;;;;;;3.17;2.83;;;;;;;;;;6208987;28;20236;-65
2022/02/11 13:18:48;;;;;;;6.87;3.33;;;;;;;;;;6224502;28;20234;-64
2022/02/11 13:22:08;;;;;;;2.10;1.90;;;;;;;;;;6229316;28;20323;-64
2022/02/11 13:25:30;;;;;;;4.40;1.47;;;;;;;;;;6228775;28;20232;-64
2022/02/11 13:28:53;;;;;;;2.77;1.30;;;;;;;;;;6234022;28;20228;-66
2022/02/11 13:32:26;;;;;;;1.60;1.20;;;;;;;;;;6219903;28;20220;-64
2022/02/11 13:35:47;;;;;;;1.47;1.00;;;;;;;;;;6223592;28;20970;-63
2022/02/11 13:39:07;;;;;;;2.10;1.90;;;;;;;;;;6225795;28;20323;-64
2022/02/11 13:42:28;;;;;;;2.67;2.07;;;;;;;;;;6216120;28;20236;-65
2022/02/11 13:45:50;;;;;;;4.13;1.80;;;;;;;;;;6216200;28;20225;-64
2022/02/11 13:49:14;;;;;;;2.40;1.53;;;;;;;;;;6219005;28;20808;-64
2022/02/11 13:53:02;;;;;;;3.13;2.47;;;;;;;;;;6223330;28;20336;-64
2022/02/11 13:56:23;;;;;;;3.33;1.80;;;;;;;;;;6221494;28;20324;-64
2022/02/11 13:59:44;;;;;;;4.10;2.43;;;;;;;;;;6227683;28;20261;-65
2022/02/11 14:03:04;;;;;;;2.30;2.00;;;;;;;;;;6220150;28;20225;-64
2022/02/11 14:06:26;;;;;;;1.90;1.40;;;;;;;;;;6220601;28;20630;-64
2022/02/11 14:09:47;;;;;;;5.63;1.87;;;;;;;;;;6225082;28;20749;-66
2022/02/11 14:13:08;;;;;;;5.67;1.47;;;;;;;;;;6218013;28;20228;-64
2022/02/11 14:16:29;;;;;;;3.37;1.57;;;;;;;;;;6225466;28;20229;-63
2022/02/11 14:19:50;;;;;;;5.80;1.73;;;;;;;;;;6212071;28;20834;-64
2022/02/11 14:23:12;;;;;;;11.57;1.67;;;;;;;;;;6222959;28;20236;-64
2022/02/11 14:26:33;;;;;;;3.23;1.70;;;;;;;;;;6217664;28;20237;-64
2022/02/11 14:29:53;;;;;;;3.23;1.63;;;;;;;;;;6210164;28;20229;-63
2022/02/11 14:33:14;;;;;;;2.57;1.43;;;;;;;;;;6226421;28;20255;-64
2022/02/11 14:36:36;;;;;;;3.03;1.60;;;;;;;;;;6237603;28;20239;-64
2022/02/11 14:39:57;;;;;;;4.47;2.60;;;;;;;;;;6261118;28;20249;-63
2022/02/11 14:43:18;;;;;;;1.77;1.67;;;;;;;;;;6262566;28;20235;-63
2022/02/11 14:46:38;;;;;;;2.57;2.33;;;;;;;;;;6262356;28;20232;-63
2022/02/11 14:49:59;;;;;;;4.97;2.10;;;;;;;;;;6278411;28;20228;-64
2022/02/11 14:53:19;;;;;;;2.47;1.40;;;;;;;;;;6282450;28;20317;-62
2022/02/11 14:56:42;;;;;;;2.00;1.37;;;;;;;;;;6271990;28;20227;-64
2022/02/11 15:00:03;;;;;;;2.77;2.37;;;;;;;;;;6287882;28;20615;-64
2022/02/11 15:03:24;;;;;;;2.57;1.37;;;;;;;;;;6266503;28;20224;-63
2022/02/11 15:06:46;;;;;;;5.37;2.97;;;;;;;;;;6262498;28;20227;-63
2022/02/11 15:10:07;;;;;;;3.40;1.87;;;;;;;;;;6286561;28;20230;-64
2022/02/11 15:13:29;;;;;;;3.83;1.83;;;;;;;;;;6284258;28;20631;-64
2022/02/11 15:16:50;;;;;;;6.27;1.57;;;;;;;;;;6280311;28;20255;-64
2022/02/11 15:20:11;;;;;;;3.80;1.97;;;;;;;;;;6287737;28;20227;-64
2022/02/11 15:23:32;;;;;;;4.33;1.50;;;;;;;;;;6285805;28;20321;-64
2022/02/11 15:26:54;;;;;;;6.80;1.60;;;;;;;;;;6289821;28;20506;-64
2022/02/11 15:30:16;;;;;;;5.07;1.77;;;;;;;;;;6283782;28;20522;-62
2022/02/11 15:33:36;;;;;;;3.73;1.90;;;;;;;;;;6281137;28;20223;-61
2022/02/11 15:36:57;;;;;;;3.57;1.63;;;;;;;;;;6285966;28;20223;-64
2022/02/11 15:40:18;;;;;;;3.60;1.83;;;;;;;;;;6285610;28;20337;-63
2022/02/11 15:43:39;;;;;;;4.40;2.13;;;;;;;;;;6286407;28;20239;-65
2022/02/11 15:47:01;;;;;;;4.63;1.73;;;;;;;;;;6282678;28;20223;-64
2022/02/11 15:50:21;;;;;;;2.90;2.13;;;;;;;;;;6289146;28;20215;-64
2022/02/11 15:53:42;;;;;;;4.90;1.90;;;;;;;;;;6283229;28;20324;-65
2022/02/11 15:57:03;;;;;;;4.13;1.60;;;;;;;;;;6282503;28;20227;-64
2022/02/11 16:00:23;;;;;;;3.77;1.50;;;;;;;;;;6278098;28;20231;-64
2022/02/11 16:03:46;;;;;;;3.33;2.07;;;;;;;;;;6279247;28;20693;-64
2022/02/11 16:07:06;;;;;;;4.87;1.70;;;;;;;;;;6281642;28;20235;-64
2022/02/11 16:10:28;;;;;;;8.57;2.67;;;;;;;;;;6276113;28;20287;-64
2022/02/11 16:13:48;;;;;;;6.47;2.03;;;;;;;;;;6271447;28;20231;-66
2022/02/11 16:17:10;;;;;;;3.77;2.83;;;;;;;;;;6284911;28;20234;-64
2022/02/11 16:20:33;;;;;;;2.53;1.73;;;;;;;;;;6285112;28;20247;-64
2022/02/11 16:23:53;;;;;;;3.77;1.80;;;;;;;;;;6283172;28;20244;-65
2022/02/11 16:27:15;;;;;;;5.57;2.20;;;;;;;;;;6281148;28;20235;-65
2022/02/11 16:30:36;;;;;;;3.40;1.40;;;;;;;;;;6276446;28;20227;-65
2022/02/11 16:33:57;;;;;;;2.80;1.80;;;;;;;;;;6282002;28;20236;-65
2022/02/11 16:37:19;;;;;;;10.37;6.87;;;;;;;;;;6263112;28;20223;-65
2022/02/11 16:40:40;;;;;;;7.90;5.30;;;;;;;;;;6262501;28;20254;-64
2022/02/11 16:44:00;;;;;;;19.70;12.33;;;;;;;;;;6268850;28;20227;-64
2022/02/11 16:47:21;;;;;;;6.47;2.93;;;;;;;;;;6264472;28;20232;-65
2022/02/11 16:50:43;;;;;;;10.03;5.13;;;;;;;;;;6265969;28;20231;-65
2022/02/11 16:54:05;;;;;;;5.73;3.67;;;;;;;;;;6258408;28;21078;-64
2022/02/11 16:57:26;;;;;;;8.20;4.93;;;;;;;;;;6259701;28;20235;-63
2022/02/11 17:00:46;;;;;;;12.73;8.80;;;;;;;;;;6255053;28;20236;-65
2022/02/11 17:04:07;;;;;;;11.93;8.07;;;;;;;;;;6250932;28;20315;-64
2022/02/11 17:07:27;;;;;;;5.40;2.57;;;;;;;;;;6267132;28;20601;-66
2022/02/11 17:10:50;;;;;;;7.80;5.33;;;;;;;;;;6261307;28;20251;-65
2022/02/11 17:14:11;;;;;;;7.53;5.27;;;;;;;;;;6255915;28;20265;-64
2022/02/11 17:17:33;;;;;;;12.23;6.50;;;;;;;;;;6257458;28;20620;-64
2022/02/11 17:20:54;;;;;;;7.57;4.73;;;;;;;;;;6248338;28;20235;-65
2022/02/11 17:24:15;;;;;;;5.63;2.77;;;;;;;;;;6256498;28;20231;-65
2022/02/11 17:27:37;;;;;;;8.37;4.27;;;;;;;;;;6242200;28;20246;-65
2022/02/11 17:30:58;;;;;;;8.23;3.10;;;;;;;;;;6238586;28;20219;-65
2022/02/11 17:34:19;;;;;;;9.57;2.73;;;;;;;;;;6258369;28;20231;-66
2022/02/11 17:37:39;;;;;;;8.33;3.10;;;;;;;;;;6239441;28;20250;-65
2022/02/11 17:41:00;;;;;;;9.23;3.53;;;;;;;;;;6257030;28;21058;-65
2022/02/11 17:44:22;;;;;;;10.90;2.43;;;;;;;;;;6265094;28;20235;-64
2022/02/11 17:47:42;;;;;;;5.67;2.23;;;;;;;;;;6255579;28;20223;-64
2022/02/11 17:51:03;;;;;;;9.03;4.33;;;;;;;;;;6256558;28;20560;-65
2022/02/11 17:54:24;;;;;;;9.63;4.87;;;;;;;;;;6265651;28;20231;-65
2022/02/11 17:57:44;;;;;;;21.23;10.80;;;;;;;;;;6279503;28;20277;-64
2022/02/11 18:01:06;;;;;;;8.50;5.43;;;;;;;;;;6273771;28;20227;-65
2022/02/11 18:04:30;;;;;;;9.63;4.73;;;;;;;;;;6268816;28;20250;-65
2022/02/11 18:07:51;;;;;;;11.90;6.80;;;;;;;;;;6256470;28;20232;-67
2022/02/11 18:11:11;;;;;;;8.93;5.30;;;;;;;;;;6264095;28;20243;-64
2022/02/11 18:14:32;;;;;;;6.20;4.43;;;;;;;;;;6271849;28;20232;-65
2022/02/11 18:17:54;;;;;;;14.63;6.87;;;;;;;;;;6270803;28;20223;-63
2022/02/11 18:21:16;;;;;;;7.23;3.50;;;;;;;;;;6266548;28;20230;-65
2022/02/11 18:24:37;;;;;;;8.37;5.40;;;;;;;;;;6256379;28;20255;-64
2022/02/11 18:27:59;;;;;;;16.03;11.97;;;;;;;;;;6253451;28;20223;-65
2022/02/11 18:31:19;;;;;;;14.73;7.50;;;;;;;;;;6261398;28;20231;-65
2022/02/11 18:34:41;;;;;;;10.03;3.77;;;;;;;;;;6271511;28;20235;-64
2022/02/11 18:38:02;;;;;;;9.47;3.87;;;;;;;;;;6271990;28;20530;-65
2022/02/11 18:41:22;;;;;;;7.30;3.33;;;;;;;;;;6269100;28;20220;-64
2022/02/11 18:44:43;;;;;;;10.30;6.50;;;;;;;;;;6268464;28;20707;-64
2022/02/11 18:48:04;;;;;;;9.97;5.87;;;;;;;;;;6267853;28;20676;-64
2022/02/11 18:51:26;;;;;;;12.87;5.73;;;;;;;;;;6273393;28;20311;-64
2022/02/11 18:54:48;;;;;;;11.37;5.53;;;;;;;;;;6286308;28;20318;-65
2022/02/11 18:58:09;;;;;;;10.07;5.27;;;;;;;;;;6259909;28;20361;-65
2022/02/11 19:01:29;;;;;;;11.20;4.30;;;;;;;;;;6278335;28;20215;-65
2022/02/11 19:04:51;;;;;;;5.87;3.47;;;;;;;;;;6283071;28;20224;-64
2022/02/11 19:08:13;;;;;;;14.00;5.07;;;;;;;;;;6288017;28;20326;-65
2022/02/11 19:11:34;;;;;;;9.00;4.43;;;;;;;;;;6281675;28;20228;-66
2022/02/11 19:14:56;;;;;;;22.70;13.40;;;;;;;;;;6285131;28;20242;-64
2022/02/11 19:18:17;;;;;;;14.40;7.07;;;;;;;;;;6284176;28;20247;-65
2022/02/11 19:21:38;;;;;;;11.90;5.87;;;;;;;;;;6283498;28;20309;-65
2022/02/11 19:25:00;;;;;;;17.90;9.77;;;;;;;;;;6288347;28;20550;-65
2022/02/11 19:28:20;;;;;;;14.30;9.40;;;;;;;;;;6271819;28;20223;-63
2022/02/11 19:31:42;;;;;;;13.00;5.87;;;;;;;;;;6283209;28;20232;-64
2022/02/11 19:35:03;;;;;;;16.00;9.17;;;;;;;;;;6270524;28;20235;-65
2022/02/11 19:38:23;;;;;;;19.27;9.73;;;;;;;;;;6275267;28;20329;-64
2022/02/11 19:41:45;;;;;;;15.37;8.33;;;;;;;;;;6270505;28;20311;-64
2022/02/11 19:45:06;;;;;;;9.27;4.43;;;;;;;;;;6247154;28;20228;-64
2022/02/11 19:48:26;;;;;;;14.30;6.97;;;;;;;;;;6254215;28;20240;-65
2022/02/11 19:51:47;;;;;;;8.27;3.77;;;;;;;;;;6270143;28;20517;-66
2022/02/11 19:55:08;;;;;;;9.87;5.17;;;;;;;;;;6246999;28;20231;-64
2022/02/11 19:58:30;;;;;;;10.47;5.37;;;;;;;;;;6275287;28;20232;-65
2022/02/11 20:01:51;;;;;;;38.23;26.03;;;;;;;;;;6261492;28;20319;-64
2022/02/11 20:05:11;;;;;;;13.00;8.23;;;;;;;;;;6259693;28;20252;-64
2022/02/11 20:08:33;;;;;;;23.17;13.87;;;;;;;;;;6259301;28;20228;-64
2022/02/11 20:11:54;;;;;;;14.60;5.13;;;;;;;;;;6270202;28;20299;-66
2022/02/11 20:15:16;;;;;;;14.10;4.47;;;;;;;;;;6283069;28;20235;-65
2022/02/11 20:18:36;;;;;;;15.97;9.60;;;;;;;;;;6289216;28;20231;-64
2022/02/11 20:21:57;;;;;;;17.47;9.20;;;;;;;;;;6281624;28;20227;-64
2022/02/11 20:25:18;;;;;;;43.73;32.33;;;;;;;;;;6280850;28;20224;-65
2022/02/11 20:28:39;;;;;;;14.63;7.47;;;;;;;;;;6285330;28;20408;-67
2022/02/11 20:32:01;;;;;;;12.07;5.77;;;;;;;;;;6276127;28;20223;-64
2022/02/11 20:35:24;;;;;;;11.30;5.33;;;;;;;;;;6278212;28;20231;-65
2022/02/11 20:38:44;;;;;;;11.00;4.43;;;;;;;;;;6274823;28;20319;-64
2022/02/11 20:42:05;;;;;;;11.50;5.87;;;;;;;;;;6272391;28;20223;-65
2022/02/11 20:45:26;;;;;;;9.87;3.97;;;;;;;;;;6250499;28;20235;-66
2022/02/11 20:48:48;;;;;;;11.73;4.53;;;;;;;;;;6253219;28;20232;-67
2022/02/11 20:52:09;;;;;;;10.53;4.63;;;;;;;;;;6247233;28;20649;-67
2022/02/11 20:55:29;;;;;;;9.03;5.17;;;;;;;;;;6248593;28;20236;-65
2022/02/11 20:58:50;;;;;;;6.67;3.90;;;;;;;;;;6251531;28;20228;-65
2022/02/11 21:02:11;;;;;;;10.47;4.13;;;;;;;;;;6249381;28;20373;-64
2022/02/11 21:05:33;;;;;;;8.70;5.13;;;;;;;;;;6253650;28;20298;-66
2022/02/11 21:08:53;;;;;;;9.30;4.17;;;;;;;;;;6260977;28;20215;-64
2022/02/11 21:12:15;;;;;;;9.73;4.33;;;;;;;;;;6277261;28;20350;-66
2022/02/11 21:15:36;;;;;;;9.43;4.67;;;;;;;;;;6249029;28;20231;-66
2022/02/11 21:18:57;;;;;;;16.47;9.97;;;;;;;;;;6251836;28;20229;-67
2022/02/11 21:22:19;;;;;;;27.83;17.47;;;;;;;;;;6261415;28;20232;-66
2022/02/11 21:25:39;;;;;;;16.37;9.20;;;;;;;;;;6242665;28;20223;-65
2022/02/11 21:29:00;;;;;;;9.13;6.93;;;;;;;;;;6281779;28;20235;-66
2022/02/11 21:32:21;;;;;;;11.50;4.60;;;;;;;;;;6268669;28;20231;-67
2022/02/11 21:35:42;;;;;;;14.07;6.77;;;;;;;;;;6251903;28;20232;-66
2022/02/11 21:39:04;;;;;;;17.87;7.90;;;;;;;;;;6252052;28;20667;-65
2022/02/11 21:42:25;;;;;;;13.73;7.23;;;;;;;;;;6279738;28;20235;-66
2022/02/11 21:45:46;;;;;;;9.97;6.07;;;;;;;;;;6278374;28;20223;-67
2022/02/11 21:49:07;;;;;;;14.77;7.07;;;;;;;;;;6271344;28;20235;-67
2022/02/11 21:52:27;;;;;;;10.30;4.80;;;;;;;;;;6279475;28;20227;-67
2022/02/11 21:55:53;;;;;;;16.47;7.70;;;;;;;;;;6274338;28;20231;-66
2022/02/11 21:59:16;;;;;;;8.73;5.53;;;;;;;;;;6275477;28;20605;-66
2022/02/11 22:02:37;;;;;;;15.60;8.20;;;;;;;;;;6273749;28;20539;-65
2022/02/11 22:05:58;;;;;;;16.63;6.27;;;;;;;;;;6252486;28;20235;-68
2022/02/11 22:09:19;;;;;;;12.40;5.43;;;;;;;;;;6258607;28;20604;-66
2022/02/11 22:12:43;;;;;;;13.17;5.33;;;;;;;;;;6256677;28;20312;-66
2022/02/11 22:16:04;;;;;;;11.47;4.53;;;;;;;;;;6273196;28;20675;-65
2022/02/11 22:19:25;;;;;;;10.47;5.63;;;;;;;;;;6262999;28;20263;-65
2022/02/11 22:22:46;;;;;;;11.27;5.80;;;;;;;;;;6265903;28;20231;-64
2022/02/11 22:26:06;;;;;;;19.73;9.23;;;;;;;;;;6247473;28;20310;-65
2022/02/11 22:29:28;;;;;;;8.97;5.03;;;;;;;;;;6249289;28;20315;-65
2022/02/11 22:32:49;;;;;;;8.97;5.20;;;;;;;;;;6272072;28;20228;-65
2022/02/11 22:36:09;;;;;;;10.33;4.53;;;;;;;;;;6267938;28;20470;-64
2022/02/11 22:39:30;;;;;;;13.20;5.83;;;;;;;;;;6231511;28;20616;-65
2022/02/11 22:42:50;;;;;;;8.20;4.60;;;;;;;;;;6233771;28;20231;-65
2022/02/11 22:46:12;;;;;;;8.73;4.17;;;;;;;;;;6241087;28;20240;-65
2022/02/11 22:53:12;;;;;;;16.23;4.40;;;;;;;;;;6232248;28;20325;-64
2022/02/11 22:56:33;;;;;;;8.60;4.23;;;;;;;;;;6225209;28;20251;-65
2022/02/11 22:59:54;;;;;;;9.90;4.67;;;;;;;;;;6218680;28;20223;-63
2022/02/11 23:03:18;;;;;;;8.60;4.27;;;;;;;;;;6211998;28;20233;-64
2022/02/11 23:06:38;;;;;;;16.03;4.97;;;;;;;;;;6191847;28;20244;-66